sensor_id;sensor_type;location;lat;lon;timestamp;temperature;humidity
22680;DHT22;11507;44.858;10.374;2023-04-03T00:01:00;7.50;99.90
22680;DHT22;11507;44.858;10.374;2023-04-03T00:03:26;7.40;99.90
22680;DHT22;11507;44.858;10.374;2023-04-03T00:05:51;7.40;99.90
22680;DHT22;11507;44.858;10.374;2023-04-03T00:08:17;7.30;99.90
22680;DHT22;11507;44.858;10.374;2023-04-03T00:10:43;7.30;99.90
22680;DHT22;11507;44.858;10.374;2023-04-03T00:13:09;7.30;99.90
22680;DHT22;11507;44.858;10.374;2023-04-03T00:15:35;7.20;99.90
22680;DHT22;11507;44.858;10.374;2023-04-03T00:18:01;7.20;99.90
22680;DHT22;11507;44.858;10.374;2023-04-03T00:20:27;7.20;99.90
22680;DHT22;11507;44.858;10.374;2023-04-03T00:22:53;7.20;99.90
22680;DHT22;11507;44.858;10.374;2023-04-03T00:25:18;7.20;99.90
22680;DHT22;11507;44.858;10.374;2023-04-03T00:27:45;7.30;99.90
22680;DHT22;11507;44.858;10.374;2023-04-03T00:30:12;7.30;99.90
22680;DHT22;11507;44.858;10.374;2023-04-03T00:32:38;7.30;99.90
22680;DHT22;11507;44.858;10.374;2023-04-03T00:35:04;7.20;99.90
22680;DHT22;11507;44.858;10.374;2023-04-03T00:37:30;7.20;99.90
22680;DHT22;11507;44.858;10.374;2023-04-03T00:39:56;7.20;99.90
22680;DHT22;11507;44.858;10.374;2023-04-03T00:42:22;7.30;99.90
22680;DHT22;11507;44.858;10.374;2023-04-03T00:47:15;7.40;99.90
22680;DHT22;11507;44.858;10.374;2023-04-03T00:49:41;7.40;99.90
22680;DHT22;11507;44.858;10.374;2023-04-03T00:52:09;7.50;99.90
22680;DHT22;11507;44.858;10.374;2023-04-03T00:54:35;7.60;99.90
22680;DHT22;11507;44.858;10.374;2023-04-03T00:57:01;7.70;99.90
22680;DHT22;11507;44.858;10.374;2023-04-03T00:59:30;7.80;99.90
22680;DHT22;11507;44.858;10.374;2023-04-03T01:01:58;7.90;99.90
22680;DHT22;11507;44.858;10.374;2023-04-03T01:04:34;8.00;99.90
22680;DHT22;11507;44.858;10.374;2023-04-03T01:07:24;8.20;99.90
22680;DHT22;11507;44.858;10.374;2023-04-03T01:09:48;8.20;99.90
22680;DHT22;11507;44.858;10.374;2023-04-03T01:12:35;8.20;99.90
22680;DHT22;11507;44.858;10.374;2023-04-03T01:15:04;8.20;99.90
22680;DHT22;11507;44.858;10.374;2023-04-03T01:17:31;8.10;99.90
22680;DHT22;11507;44.858;10.374;2023-04-03T01:20:24;8.10;99.90
22680;DHT22;11507;44.858;10.374;2023-04-03T01:25:10;8.30;99.90
22680;DHT22;11507;44.858;10.374;2023-04-03T01:27:35;8.30;99.90
22680;DHT22;11507;44.858;10.374;2023-04-03T01:30:01;8.30;99.90
22680;DHT22;11507;44.858;10.374;2023-04-03T01:32:28;8.30;99.90
22680;DHT22;11507;44.858;10.374;2023-04-03T01:34:54;8.20;99.90
22680;DHT22;11507;44.858;10.374;2023-04-03T01:37:20;8.20;99.90
22680;DHT22;11507;44.858;10.374;2023-04-03T01:39:46;8.20;99.90
22680;DHT22;11507;44.858;10.374;2023-04-03T01:42:12;8.10;99.90
22680;DHT22;11507;44.858;10.374;2023-04-03T01:44:42;8.00;99.90
22680;DHT22;11507;44.858;10.374;2023-04-03T01:47:08;7.90;99.90
22680;DHT22;11507;44.858;10.374;2023-04-03T01:49:34;7.90;99.90
22680;DHT22;11507;44.858;10.374;2023-04-03T01:52:00;7.80;99.90
22680;DHT22;11507;44.858;10.374;2023-04-03T01:54:26;7.80;99.90
22680;DHT22;11507;44.858;10.374;2023-04-03T01:56:52;7.70;99.90
22680;DHT22;11507;44.858;10.374;2023-04-03T01:59:19;7.60;99.90
22680;DHT22;11507;44.858;10.374;2023-04-03T02:01:44;7.60;99.90
22680;DHT22;11507;44.858;10.374;2023-04-03T02:04:11;7.60;99.90
22680;DHT22;11507;44.858;10.374;2023-04-03T02:06:37;7.70;99.90
22680;DHT22;11507;44.858;10.374;2023-04-03T02:09:03;7.60;99.90
22680;DHT22;11507;44.858;10.374;2023-04-03T02:11:30;7.60;99.90
22680;DHT22;11507;44.858;10.374;2023-04-03T02:13:56;7.50;99.90
22680;DHT22;11507;44.858;10.374;2023-04-03T02:16:22;7.50;99.90
22680;DHT22;11507;44.858;10.374;2023-04-03T02:18:48;7.50;99.90
22680;DHT22;11507;44.858;10.374;2023-04-03T02:21:15;7.40;99.90
22680;DHT22;11507;44.858;10.374;2023-04-03T02:23:41;7.40;99.90
22680;DHT22;11507;44.858;10.374;2023-04-03T02:26:08;7.40;99.90
22680;DHT22;11507;44.858;10.374;2023-04-03T02:28:34;7.30;99.90
22680;DHT22;11507;44.858;10.374;2023-04-03T02:31:01;7.20;99.90
22680;DHT22;11507;44.858;10.374;2023-04-03T02:33:27;7.10;99.90
22680;DHT22;11507;44.858;10.374;2023-04-03T02:35:54;6.90;99.90
22680;DHT22;11507;44.858;10.374;2023-04-03T02:38:21;6.80;99.90
22680;DHT22;11507;44.858;10.374;2023-04-03T02:40:48;6.70;99.90
22680;DHT22;11507;44.858;10.374;2023-04-03T02:43:13;6.90;99.90
22680;DHT22;11507;44.858;10.374;2023-04-03T02:45:39;7.10;99.90
22680;DHT22;11507;44.858;10.374;2023-04-03T02:48:06;7.00;99.90
22680;DHT22;11507;44.858;10.374;2023-04-03T02:50:31;6.90;99.90
22680;DHT22;11507;44.858;10.374;2023-04-03T02:52:57;6.80;99.90
22680;DHT22;11507;44.858;10.374;2023-04-03T02:55:23;6.60;99.90
22680;DHT22;11507;44.858;10.374;2023-04-03T02:57:51;6.60;99.90
22680;DHT22;11507;44.858;10.374;2023-04-03T03:00:18;6.50;99.90
22680;DHT22;11507;44.858;10.374;2023-04-03T03:02:44;6.70;99.90
22680;DHT22;11507;44.858;10.374;2023-04-03T03:05:10;6.80;99.90
22680;DHT22;11507;44.858;10.374;2023-04-03T03:07:36;6.80;99.90
22680;DHT22;11507;44.858;10.374;2023-04-03T03:10:01;6.90;99.90
22680;DHT22;11507;44.858;10.374;2023-04-03T03:12:27;6.80;99.90
22680;DHT22;11507;44.858;10.374;2023-04-03T03:14:55;6.40;99.90
22680;DHT22;11507;44.858;10.374;2023-04-03T03:17:21;6.30;99.90
22680;DHT22;11507;44.858;10.374;2023-04-03T03:19:47;6.20;99.90
22680;DHT22;11507;44.858;10.374;2023-04-03T03:22:12;6.20;99.90
22680;DHT22;11507;44.858;10.374;2023-04-03T03:24:38;6.10;99.90
22680;DHT22;11507;44.858;10.374;2023-04-03T03:27:04;6.10;99.90
22680;DHT22;11507;44.858;10.374;2023-04-03T03:29:30;6.10;99.90
22680;DHT22;11507;44.858;10.374;2023-04-03T03:31:56;6.00;99.90
22680;DHT22;11507;44.858;10.374;2023-04-03T03:34:21;5.90;99.90
22680;DHT22;11507;44.858;10.374;2023-04-03T03:36:47;5.90;99.90
22680;DHT22;11507;44.858;10.374;2023-04-03T03:39:14;5.90;99.90
22680;DHT22;11507;44.858;10.374;2023-04-03T03:41:40;5.80;99.90
22680;DHT22;11507;44.858;10.374;2023-04-03T03:44:05;5.70;99.90
22680;DHT22;11507;44.858;10.374;2023-04-03T03:46:33;5.50;99.90
22680;DHT22;11507;44.858;10.374;2023-04-03T03:48:59;5.30;99.90
22680;DHT22;11507;44.858;10.374;2023-04-03T03:51:25;5.20;99.90
22680;DHT22;11507;44.858;10.374;2023-04-03T03:53:51;5.10;99.90
22680;DHT22;11507;44.858;10.374;2023-04-03T03:56:18;5.00;99.90
22680;DHT22;11507;44.858;10.374;2023-04-03T03:58:45;4.80;99.90
22680;DHT22;11507;44.858;10.374;2023-04-03T04:01:11;4.80;99.90
22680;DHT22;11507;44.858;10.374;2023-04-03T04:03:42;4.70;99.90
22680;DHT22;11507;44.858;10.374;2023-04-03T04:06:11;4.60;99.90
22680;DHT22;11507;44.858;10.374;2023-04-03T04:08:37;4.50;99.90
22680;DHT22;11507;44.858;10.374;2023-04-03T04:11:05;4.40;99.90
22680;DHT22;11507;44.858;10.374;2023-04-03T04:13:31;4.40;99.90
22680;DHT22;11507;44.858;10.374;2023-04-03T04:15:57;4.40;99.90
22680;DHT22;11507;44.858;10.374;2023-04-03T04:18:23;4.30;99.90
22680;DHT22;11507;44.858;10.374;2023-04-03T04:20:49;4.30;99.90
22680;DHT22;11507;44.858;10.374;2023-04-03T04:23:17;4.30;99.90
22680;DHT22;11507;44.858;10.374;2023-04-03T04:25:46;4.30;99.90
22680;DHT22;11507;44.858;10.374;2023-04-03T04:28:13;4.30;99.90
22680;DHT22;11507;44.858;10.374;2023-04-03T04:30:39;4.20;99.90
22680;DHT22;11507;44.858;10.374;2023-04-03T04:33:05;4.20;99.90
22680;DHT22;11507;44.858;10.374;2023-04-03T04:35:33;4.20;99.90
22680;DHT22;11507;44.858;10.374;2023-04-03T04:37:59;4.30;99.90
22680;DHT22;11507;44.858;10.374;2023-04-03T04:40:26;4.30;99.90
22680;DHT22;11507;44.858;10.374;2023-04-03T04:42:52;4.40;99.90
22680;DHT22;11507;44.858;10.374;2023-04-03T04:45:18;4.40;99.90
22680;DHT22;11507;44.858;10.374;2023-04-03T04:47:46;4.40;99.90
22680;DHT22;11507;44.858;10.374;2023-04-03T04:50:11;4.40;99.90
22680;DHT22;11507;44.858;10.374;2023-04-03T04:52:37;4.50;99.90
22680;DHT22;11507;44.858;10.374;2023-04-03T04:55:04;4.50;99.90
22680;DHT22;11507;44.858;10.374;2023-04-03T04:57:30;4.50;99.90
22680;DHT22;11507;44.858;10.374;2023-04-03T04:59:58;4.50;99.90
22680;DHT22;11507;44.858;10.374;2023-04-03T05:02:24;4.50;99.90
22680;DHT22;11507;44.858;10.374;2023-04-03T05:04:51;4.50;99.90
22680;DHT22;11507;44.858;10.374;2023-04-03T05:07:22;4.50;99.90
22680;DHT22;11507;44.858;10.374;2023-04-03T05:09:48;4.60;99.90
22680;DHT22;11507;44.858;10.374;2023-04-03T05:12:16;4.60;99.90
22680;DHT22;11507;44.858;10.374;2023-04-03T05:14:49;4.60;99.90
22680;DHT22;11507;44.858;10.374;2023-04-03T05:17:16;4.60;99.90
22680;DHT22;11507;44.858;10.374;2023-04-03T05:19:47;4.60;99.90
22680;DHT22;11507;44.858;10.374;2023-04-03T05:22:14;4.70;99.90
22680;DHT22;11507;44.858;10.374;2023-04-03T05:24:40;4.70;99.90
22680;DHT22;11507;44.858;10.374;2023-04-03T05:27:08;4.80;99.90
22680;DHT22;11507;44.858;10.374;2023-04-03T05:29:38;4.80;99.90
22680;DHT22;11507;44.858;10.374;2023-04-03T05:32:05;4.80;99.90
22680;DHT22;11507;44.858;10.374;2023-04-03T05:34:30;4.90;99.90
22680;DHT22;11507;44.858;10.374;2023-04-03T05:36:57;5.00;99.90
22680;DHT22;11507;44.858;10.374;2023-04-03T05:39:23;5.10;99.90
22680;DHT22;11507;44.858;10.374;2023-04-03T05:41:50;5.10;99.90
22680;DHT22;11507;44.858;10.374;2023-04-03T05:44:16;5.30;99.90
22680;DHT22;11507;44.858;10.374;2023-04-03T05:46:45;5.30;99.90
22680;DHT22;11507;44.858;10.374;2023-04-03T05:49:11;5.40;99.90
22680;DHT22;11507;44.858;10.374;2023-04-03T05:51:38;5.50;99.90
22680;DHT22;11507;44.858;10.374;2023-04-03T05:54:18;5.70;99.90
22680;DHT22;11507;44.858;10.374;2023-04-03T05:56:46;5.90;99.90
22680;DHT22;11507;44.858;10.374;2023-04-03T05:59:13;6.00;99.90
22680;DHT22;11507;44.858;10.374;2023-04-03T06:01:39;6.20;99.90
22680;DHT22;11507;44.858;10.374;2023-04-03T06:04:04;6.50;99.90
22680;DHT22;11507;44.858;10.374;2023-04-03T06:09:17;6.90;99.90
22680;DHT22;11507;44.858;10.374;2023-04-03T06:11:43;7.20;99.90
22680;DHT22;11507;44.858;10.374;2023-04-03T06:14:09;7.40;99.90
22680;DHT22;11507;44.858;10.374;2023-04-03T06:16:35;7.70;99.90
22680;DHT22;11507;44.858;10.374;2023-04-03T06:19:01;7.90;99.90
22680;DHT22;11507;44.858;10.374;2023-04-03T06:21:28;8.10;99.90
22680;DHT22;11507;44.858;10.374;2023-04-03T06:23:54;8.40;99.90
22680;DHT22;11507;44.858;10.374;2023-04-03T06:26:20;8.60;99.90
22680;DHT22;11507;44.858;10.374;2023-04-03T06:28:46;8.80;99.90
22680;DHT22;11507;44.858;10.374;2023-04-03T06:31:12;8.90;99.90
22680;DHT22;11507;44.858;10.374;2023-04-03T06:33:37;9.10;99.90
22680;DHT22;11507;44.858;10.374;2023-04-03T06:36:04;9.30;99.90
22680;DHT22;11507;44.858;10.374;2023-04-03T06:38:30;9.50;99.90
22680;DHT22;11507;44.858;10.374;2023-04-03T06:40:56;9.80;99.90
22680;DHT22;11507;44.858;10.374;2023-04-03T06:43:22;9.90;99.90
22680;DHT22;11507;44.858;10.374;2023-04-03T06:45:48;10.20;99.90
22680;DHT22;11507;44.858;10.374;2023-04-03T06:48:13;10.40;99.90
22680;DHT22;11507;44.858;10.374;2023-04-03T06:50:39;10.70;99.90
22680;DHT22;11507;44.858;10.374;2023-04-03T06:53:06;10.90;99.90
22680;DHT22;11507;44.858;10.374;2023-04-03T06:55:32;11.20;99.90
22680;DHT22;11507;44.858;10.374;2023-04-03T06:57:58;11.40;99.90
22680;DHT22;11507;44.858;10.374;2023-04-03T07:00:24;11.60;99.90
22680;DHT22;11507;44.858;10.374;2023-04-03T07:02:50;11.90;99.90
22680;DHT22;11507;44.858;10.374;2023-04-03T07:05:17;12.10;99.90
22680;DHT22;11507;44.858;10.374;2023-04-03T07:07:42;12.30;99.90
22680;DHT22;11507;44.858;10.374;2023-04-03T07:10:09;12.40;99.90
22680;DHT22;11507;44.858;10.374;2023-04-03T07:12:35;12.60;99.90
22680;DHT22;11507;44.858;10.374;2023-04-03T07:15:01;12.70;99.90
22680;DHT22;11507;44.858;10.374;2023-04-03T07:17:27;12.90;99.90
22680;DHT22;11507;44.858;10.374;2023-04-03T07:19:52;12.70;99.90
22680;DHT22;11507;44.858;10.374;2023-04-03T07:22:18;12.80;99.90
22680;DHT22;11507;44.858;10.374;2023-04-03T07:24:44;12.90;99.90
22680;DHT22;11507;44.858;10.374;2023-04-03T07:27:09;12.90;99.90
22680;DHT22;11507;44.858;10.374;2023-04-03T07:29:38;13.00;99.90
22680;DHT22;11507;44.858;10.374;2023-04-03T07:32:04;13.20;99.90
22680;DHT22;11507;44.858;10.374;2023-04-03T07:34:31;13.40;99.90
22680;DHT22;11507;44.858;10.374;2023-04-03T07:36:58;13.50;99.90
22680;DHT22;11507;44.858;10.374;2023-04-03T07:39:23;13.50;99.90
22680;DHT22;11507;44.858;10.374;2023-04-03T07:41:50;13.80;99.90
22680;DHT22;11507;44.858;10.374;2023-04-03T07:44:17;14.00;99.90
22680;DHT22;11507;44.858;10.374;2023-04-03T07:46:43;14.30;99.90
22680;DHT22;11507;44.858;10.374;2023-04-03T07:49:09;14.40;99.90
22680;DHT22;11507;44.858;10.374;2023-04-03T07:51:35;14.60;99.90
22680;DHT22;11507;44.858;10.374;2023-04-03T07:54:03;14.70;99.90
22680;DHT22;11507;44.858;10.374;2023-04-03T07:56:29;14.80;99.90
22680;DHT22;11507;44.858;10.374;2023-04-03T07:58:56;14.80;99.90
22680;DHT22;11507;44.858;10.374;2023-04-03T08:01:22;14.90;99.90
22680;DHT22;11507;44.858;10.374;2023-04-03T08:03:48;14.90;99.90
22680;DHT22;11507;44.858;10.374;2023-04-03T08:06:13;15.10;99.90
22680;DHT22;11507;44.858;10.374;2023-04-03T08:08:40;15.20;99.90
22680;DHT22;11507;44.858;10.374;2023-04-03T08:11:07;15.30;99.90
22680;DHT22;11507;44.858;10.374;2023-04-03T08:13:34;15.30;99.90
22680;DHT22;11507;44.858;10.374;2023-04-03T08:16:15;15.60;99.90
22680;DHT22;11507;44.858;10.374;2023-04-03T08:18:41;15.80;99.90
22680;DHT22;11507;44.858;10.374;2023-04-03T08:21:08;16.00;99.90
22680;DHT22;11507;44.858;10.374;2023-04-03T08:23:34;16.30;99.90
22680;DHT22;11507;44.858;10.374;2023-04-03T08:26:10;16.30;99.90
22680;DHT22;11507;44.858;10.374;2023-04-03T08:28:37;16.30;99.90
22680;DHT22;11507;44.858;10.374;2023-04-03T08:31:05;16.50;99.90
22680;DHT22;11507;44.858;10.374;2023-04-03T08:33:34;16.60;99.90
22680;DHT22;11507;44.858;10.374;2023-04-03T08:36:04;16.80;99.90
22680;DHT22;11507;44.858;10.374;2023-04-03T08:38:30;17.00;99.90
22680;DHT22;11507;44.858;10.374;2023-04-03T08:41:04;17.30;99.90
22680;DHT22;11507;44.858;10.374;2023-04-03T08:43:36;17.20;99.90
22680;DHT22;11507;44.858;10.374;2023-04-03T08:46:05;17.40;99.90
22680;DHT22;11507;44.858;10.374;2023-04-03T08:48:36;17.50;99.90
22680;DHT22;11507;44.858;10.374;2023-04-03T08:51:04;17.70;99.90
22680;DHT22;11507;44.858;10.374;2023-04-03T08:53:39;17.70;99.90
22680;DHT22;11507;44.858;10.374;2023-04-03T08:56:08;18.00;99.90
22680;DHT22;11507;44.858;10.374;2023-04-03T09:01:20;18.10;99.90
22680;DHT22;11507;44.858;10.374;2023-04-03T09:03:49;17.80;99.90
22680;DHT22;11507;44.858;10.374;2023-04-03T09:06:22;17.80;99.90
22680;DHT22;11507;44.858;10.374;2023-04-03T09:11:23;17.80;99.90
22680;DHT22;11507;44.858;10.374;2023-04-03T09:21:38;19.00;99.90
22680;DHT22;11507;44.858;10.374;2023-04-03T09:24:07;19.40;99.90
22680;DHT22;11507;44.858;10.374;2023-04-03T09:29:19;20.00;99.90
22680;DHT22;11507;44.858;10.374;2023-04-03T09:31:47;20.00;99.90
22680;DHT22;11507;44.858;10.374;2023-04-03T09:34:24;19.90;99.90
22680;DHT22;11507;44.858;10.374;2023-04-03T09:36:55;20.00;99.90
22680;DHT22;11507;44.858;10.374;2023-04-03T09:39:23;20.50;99.90
22680;DHT22;11507;44.858;10.374;2023-04-03T09:41:57;20.60;99.90
22680;DHT22;11507;44.858;10.374;2023-04-03T09:44:42;20.30;99.90
22680;DHT22;11507;44.858;10.374;2023-04-03T09:47:28;20.20;99.90
22680;DHT22;11507;44.858;10.374;2023-04-03T09:52:36;19.70;99.90
22680;DHT22;11507;44.858;10.374;2023-04-03T09:55:13;19.60;99.90
22680;DHT22;11507;44.858;10.374;2023-04-03T09:57:40;19.40;99.90
22680;DHT22;11507;44.858;10.374;2023-04-03T10:00:06;18.90;99.90
22680;DHT22;11507;44.858;10.374;2023-04-03T10:02:44;18.90;99.90
22680;DHT22;11507;44.858;10.374;2023-04-03T10:05:26;19.00;99.90
22680;DHT22;11507;44.858;10.374;2023-04-03T10:07:59;19.00;99.90
22680;DHT22;11507;44.858;10.374;2023-04-03T10:10:33;19.70;99.90
22680;DHT22;11507;44.858;10.374;2023-04-03T10:15:36;19.80;99.90
22680;DHT22;11507;44.858;10.374;2023-04-03T10:18:03;20.30;99.90
22680;DHT22;11507;44.858;10.374;2023-04-03T10:21:06;20.60;98.60
22680;DHT22;11507;44.858;10.374;2023-04-03T10:23:28;20.90;99.90
22680;DHT22;11507;44.858;10.374;2023-04-03T10:34:11;20.60;96.90
22680;DHT22;11507;44.858;10.374;2023-04-03T10:39:14;20.40;98.70
22680;DHT22;11507;44.858;10.374;2023-04-03T10:42:00;20.60;99.20
22680;DHT22;11507;44.858;10.374;2023-04-03T10:47:17;20.10;96.10
22680;DHT22;11507;44.858;10.374;2023-04-03T10:50:29;19.50;95.90
22680;DHT22;11507;44.858;10.374;2023-04-03T10:52:57;19.40;97.00
22680;DHT22;11507;44.858;10.374;2023-04-03T10:57:48;19.00;98.70
22680;DHT22;11507;44.858;10.374;2023-04-03T11:00:18;19.70;99.90
22680;DHT22;11507;44.858;10.374;2023-04-03T11:02:48;20.60;96.90
22680;DHT22;11507;44.858;10.374;2023-04-03T11:08:04;21.20;94.00
22680;DHT22;11507;44.858;10.374;2023-04-03T11:10:40;20.90;95.10
22680;DHT22;11507;44.858;10.374;2023-04-03T11:15:33;20.50;93.70
22680;DHT22;11507;44.858;10.374;2023-04-03T11:18:43;20.40;92.10
22680;DHT22;11507;44.858;10.374;2023-04-03T11:21:33;20.30;92.30
22680;DHT22;11507;44.858;10.374;2023-04-03T11:23:39;21.30;90.30
22680;DHT22;11507;44.858;10.374;2023-04-03T11:26:10;22.50;89.30
22680;DHT22;11507;44.858;10.374;2023-04-03T11:28:39;23.50;83.90
22680;DHT22;11507;44.858;10.374;2023-04-03T11:33:55;24.80;76.90
22680;DHT22;11507;44.858;10.374;2023-04-03T11:36:28;25.30;71.20
22680;DHT22;11507;44.858;10.374;2023-04-03T11:39:00;25.30;68.30
22680;DHT22;11507;44.858;10.374;2023-04-03T11:41:28;25.40;64.00
22680;DHT22;11507;44.858;10.374;2023-04-03T11:44:04;26.20;71.50
22680;DHT22;11507;44.858;10.374;2023-04-03T11:52:00;27.50;61.20
22680;DHT22;11507;44.858;10.374;2023-04-03T11:57:22;27.80;58.70
22680;DHT22;11507;44.858;10.374;2023-04-03T11:59:49;28.30;59.50
22680;DHT22;11507;44.858;10.374;2023-04-03T12:02:34;28.50;56.90
22680;DHT22;11507;44.858;10.374;2023-04-03T12:10:30;26.40;54.30
22680;DHT22;11507;44.858;10.374;2023-04-03T12:12:57;26.30;58.30
22680;DHT22;11507;44.858;10.374;2023-04-03T12:15:26;26.50;55.20
22680;DHT22;11507;44.858;10.374;2023-04-03T12:20:56;28.00;56.20
22680;DHT22;11507;44.858;10.374;2023-04-03T12:23:23;28.80;55.60
22680;DHT22;11507;44.858;10.374;2023-04-03T12:25:49;29.00;52.70
22680;DHT22;11507;44.858;10.374;2023-04-03T12:28:17;28.60;51.50
22680;DHT22;11507;44.858;10.374;2023-04-03T12:30:43;29.40;53.60
22680;DHT22;11507;44.858;10.374;2023-04-03T12:35:37;29.50;49.40
22680;DHT22;11507;44.858;10.374;2023-04-03T12:43:42;29.70;53.00
22680;DHT22;11507;44.858;10.374;2023-04-03T12:46:21;29.50;48.10
22680;DHT22;11507;44.858;10.374;2023-04-03T12:48:48;29.40;49.40
22680;DHT22;11507;44.858;10.374;2023-04-03T12:51:49;29.90;50.90
22680;DHT22;11507;44.858;10.374;2023-04-03T12:54:13;29.10;48.60
22680;DHT22;11507;44.858;10.374;2023-04-03T12:56:40;28.70;48.50
22680;DHT22;11507;44.858;10.374;2023-04-03T12:59:18;27.60;48.80
22680;DHT22;11507;44.858;10.374;2023-04-03T13:02:00;27.00;52.20
22680;DHT22;11507;44.858;10.374;2023-04-03T13:04:27;27.00;54.40
22680;DHT22;11507;44.858;10.374;2023-04-03T13:06:57;27.50;51.70
22680;DHT22;11507;44.858;10.374;2023-04-03T13:09:25;28.00;51.50
22680;DHT22;11507;44.858;10.374;2023-04-03T13:12:01;28.30;50.40
22680;DHT22;11507;44.858;10.374;2023-04-03T13:14:29;28.60;50.60
22680;DHT22;11507;44.858;10.374;2023-04-03T13:19:32;29.00;51.00
22680;DHT22;11507;44.858;10.374;2023-04-03T13:22:07;29.00;52.50
22680;DHT22;11507;44.858;10.374;2023-04-03T13:24:34;29.20;51.70
22680;DHT22;11507;44.858;10.374;2023-04-03T13:27:02;29.00;51.70
22680;DHT22;11507;44.858;10.374;2023-04-03T13:29:33;28.20;52.40
22680;DHT22;11507;44.858;10.374;2023-04-03T13:32:00;26.80;55.60
22680;DHT22;11507;44.858;10.374;2023-04-03T13:34:29;25.40;57.80
22680;DHT22;11507;44.858;10.374;2023-04-03T13:37:01;24.40;59.90
22680;DHT22;11507;44.858;10.374;2023-04-03T13:39:29;23.50;63.00
22680;DHT22;11507;44.858;10.374;2023-04-03T13:41:58;23.40;67.50
22680;DHT22;11507;44.858;10.374;2023-04-03T13:44:29;24.00;63.70
22680;DHT22;11507;44.858;10.374;2023-04-03T13:46:57;24.60;60.60
22680;DHT22;11507;44.858;10.374;2023-04-03T13:49:40;24.30;62.10
22680;DHT22;11507;44.858;10.374;2023-04-03T13:54:54;24.50;61.20
22680;DHT22;11507;44.858;10.374;2023-04-03T13:57:21;25.90;61.70
22680;DHT22;11507;44.858;10.374;2023-04-03T13:59:49;27.40;58.60
22680;DHT22;11507;44.858;10.374;2023-04-03T14:02:26;27.30;53.80
22680;DHT22;11507;44.858;10.374;2023-04-03T14:04:56;27.00;55.60
22680;DHT22;11507;44.858;10.374;2023-04-03T14:07:29;27.20;56.70
22680;DHT22;11507;44.858;10.374;2023-04-03T14:09:57;27.40;56.10
22680;DHT22;11507;44.858;10.374;2023-04-03T14:12:32;26.50;54.70
22680;DHT22;11507;44.858;10.374;2023-04-03T14:17:28;23.90;59.30
22680;DHT22;11507;44.858;10.374;2023-04-03T14:19:57;22.90;61.30
22680;DHT22;11507;44.858;10.374;2023-04-03T14:22:26;22.40;63.50
22680;DHT22;11507;44.858;10.374;2023-04-03T14:24:57;21.80;62.30
22680;DHT22;11507;44.858;10.374;2023-04-03T14:27:28;21.60;65.10
22680;DHT22;11507;44.858;10.374;2023-04-03T14:29:57;21.40;67.40
22680;DHT22;11507;44.858;10.374;2023-04-03T14:32:31;22.10;67.40
22680;DHT22;11507;44.858;10.374;2023-04-03T14:35:00;23.30;61.10
22680;DHT22;11507;44.858;10.374;2023-04-03T14:37:29;23.10;59.80
22680;DHT22;11507;44.858;10.374;2023-04-03T14:40:02;22.60;59.80
22680;DHT22;11507;44.858;10.374;2023-04-03T14:42:32;22.30;60.10
22680;DHT22;11507;44.858;10.374;2023-04-03T14:45:05;22.30;61.60
22680;DHT22;11507;44.858;10.374;2023-04-03T14:47:47;22.30;63.30
22680;DHT22;11507;44.858;10.374;2023-04-03T14:50:25;23.30;62.20
22680;DHT22;11507;44.858;10.374;2023-04-03T14:52:56;24.30;58.30
22680;DHT22;11507;44.858;10.374;2023-04-03T14:55:25;23.90;54.10
22680;DHT22;11507;44.858;10.374;2023-04-03T14:57:56;23.50;54.40
22680;DHT22;11507;44.858;10.374;2023-04-03T15:00:24;23.50;55.10
22680;DHT22;11507;44.858;10.374;2023-04-03T15:02:52;24.20;54.20
22680;DHT22;11507;44.858;10.374;2023-04-03T15:05:21;25.20;54.80
22680;DHT22;11507;44.858;10.374;2023-04-03T15:07:57;26.10;51.80
22680;DHT22;11507;44.858;10.374;2023-04-03T15:10:29;26.10;47.90
22680;DHT22;11507;44.858;10.374;2023-04-03T15:13:00;25.40;51.20
22680;DHT22;11507;44.858;10.374;2023-04-03T15:15:28;25.60;50.20
22680;DHT22;11507;44.858;10.374;2023-04-03T15:17:59;25.90;49.40
22680;DHT22;11507;44.858;10.374;2023-04-03T15:20:29;25.70;45.30
22680;DHT22;11507;44.858;10.374;2023-04-03T15:23:00;25.30;46.00
22680;DHT22;11507;44.858;10.374;2023-04-03T15:25:27;26.00;47.60
22680;DHT22;11507;44.858;10.374;2023-04-03T15:27:53;26.50;47.10
22680;DHT22;11507;44.858;10.374;2023-04-03T15:30:20;26.40;46.30
22680;DHT22;11507;44.858;10.374;2023-04-03T15:32:49;26.20;44.40
22680;DHT22;11507;44.858;10.374;2023-04-03T15:35:19;26.40;44.00
22680;DHT22;11507;44.858;10.374;2023-04-03T15:37:46;26.30;43.10
22680;DHT22;11507;44.858;10.374;2023-04-03T15:40:15;25.80;43.10
22680;DHT22;11507;44.858;10.374;2023-04-03T15:42:43;24.90;44.40
22680;DHT22;11507;44.858;10.374;2023-04-03T15:45:09;24.40;46.20
22680;DHT22;11507;44.858;10.374;2023-04-03T15:47:35;24.60;46.60
22680;DHT22;11507;44.858;10.374;2023-04-03T15:50:02;24.50;46.00
22680;DHT22;11507;44.858;10.374;2023-04-03T15:52:34;23.90;47.30
22680;DHT22;11507;44.858;10.374;2023-04-03T15:55:02;23.30;48.90
22680;DHT22;11507;44.858;10.374;2023-04-03T15:57:31;22.80;50.00
22680;DHT22;11507;44.858;10.374;2023-04-03T16:00:00;22.10;49.80
22680;DHT22;11507;44.858;10.374;2023-04-03T16:02:34;21.60;50.80
22680;DHT22;11507;44.858;10.374;2023-04-03T16:05:01;21.00;51.60
22680;DHT22;11507;44.858;10.374;2023-04-03T16:07:33;20.50;52.70
22680;DHT22;11507;44.858;10.374;2023-04-03T16:10:01;20.00;52.90
22680;DHT22;11507;44.858;10.374;2023-04-03T16:12:27;19.20;53.90
22680;DHT22;11507;44.858;10.374;2023-04-03T16:14:57;18.70;54.80
22680;DHT22;11507;44.858;10.374;2023-04-03T16:17:25;18.10;55.00
22680;DHT22;11507;44.858;10.374;2023-04-03T16:19:59;17.50;55.50
22680;DHT22;11507;44.858;10.374;2023-04-03T16:22:27;17.00;56.40
22680;DHT22;11507;44.858;10.374;2023-04-03T16:24:57;16.40;56.90
22680;DHT22;11507;44.858;10.374;2023-04-03T16:27:24;16.00;57.90
22680;DHT22;11507;44.858;10.374;2023-04-03T16:30:05;15.70;59.30
22680;DHT22;11507;44.858;10.374;2023-04-03T16:32:34;15.40;61.10
22680;DHT22;11507;44.858;10.374;2023-04-03T16:35:03;15.30;61.00
22680;DHT22;11507;44.858;10.374;2023-04-03T16:37:32;15.10;62.70
22680;DHT22;11507;44.858;10.374;2023-04-03T16:39:59;15.00;62.70
22680;DHT22;11507;44.858;10.374;2023-04-03T16:42:26;14.90;63.50
22680;DHT22;11507;44.858;10.374;2023-04-03T16:44:53;14.70;62.80
22680;DHT22;11507;44.858;10.374;2023-04-03T16:47:22;14.60;63.80
22680;DHT22;11507;44.858;10.374;2023-04-03T16:49:53;14.50;64.90
22680;DHT22;11507;44.858;10.374;2023-04-03T16:52:20;14.30;63.90
22680;DHT22;11507;44.858;10.374;2023-04-03T16:54:45;14.20;64.70
22680;DHT22;11507;44.858;10.374;2023-04-03T16:57:12;14.10;66.30